Time;durP1;ratioP1;P1;durP2;ratioP2;P2;SDS_P1;SDS_P2;PMS_P1;PMS_P2;Temp;Humidity;BMP_temperature;BMP_pressure;BME280_temperature;BME280_humidity;BME280_pressure;Samples;Min_cycle;Max_cycle;Signal;HPM_P1;HPM_P2
2022/07/23 00:00:00;;;;;;;8.95;8.25;;;;;;;;;;5040155;28;20088;-69
2022/07/23 00:02:26;;;;;;;9.27;8.48;;;;;;;;;;5047027;28;20663;-69
2022/07/23 00:04:52;;;;;;;9.15;8.25;;;;;;;;;;5041395;28;20048;-69
2022/07/23 00:07:17;;;;;;;10.98;8.45;;;;;;;;;;5044662;28;20503;-69
2022/07/23 00:09:43;;;;;;;9.13;8.23;;;;;;;;;;5041565;28;20040;-69
2022/07/23 00:12:08;;;;;;;8.95;8.13;;;;;;;;;;5044035;28;20448;-69
2022/07/23 00:14:34;;;;;;;9.52;8.73;;;;;;;;;;5041857;28;20480;-69
2022/07/23 00:16:59;;;;;;;8.82;7.93;;;;;;;;;;5046347;28;20029;-69
2022/07/23 00:19:25;;;;;;;8.93;8.13;;;;;;;;;;5045357;28;20073;-69
2022/07/23 00:21:51;;;;;;;9.00;8.30;;;;;;;;;;5043963;28;20037;-69
2022/07/23 00:24:16;;;;;;;8.20;7.40;;;;;;;;;;5041867;28;20040;-69
2022/07/23 00:26:44;;;;;;;8.32;7.50;;;;;;;;;;5045771;28;20053;-69
2022/07/23 00:29:09;;;;;;;10.38;7.43;;;;;;;;;;5047592;28;20060;-69
2022/07/23 00:31:35;;;;;;;10.15;7.90;;;;;;;;;;5044375;28;20037;-69
2022/07/23 00:34:01;;;;;;;8.57;7.80;;;;;;;;;;5045802;28;20061;-69
2022/07/23 00:36:27;;;;;;;9.80;8.80;;;;;;;;;;5044407;28;20033;-68
2022/07/23 00:38:53;;;;;;;8.50;7.80;;;;;;;;;;5046168;28;20116;-68
2022/07/23 00:41:19;;;;;;;8.82;8.07;;;;;;;;;;5046383;28;20112;-68
2022/07/23 00:43:45;;;;;;;8.05;7.45;;;;;;;;;;5045543;28;20033;-68
2022/07/23 00:46:11;;;;;;;9.15;8.35;;;;;;;;;;5049204;28;20133;-68
2022/07/23 00:48:36;;;;;;;8.82;7.78;;;;;;;;;;5046188;28;20458;-68
2022/07/23 00:51:02;;;;;;;7.78;7.18;;;;;;;;;;5044132;28;20040;-68
2022/07/23 00:53:28;;;;;;;7.80;7.20;;;;;;;;;;5045267;28;20033;-68
2022/07/23 00:55:54;;;;;;;7.82;7.20;;;;;;;;;;5046607;28;20040;-68
2022/07/23 00:58:20;;;;;;;7.70;7.10;;;;;;;;;;5043365;28;20032;-68
2022/07/23 01:00:46;;;;;;;7.47;6.97;;;;;;;;;;5037263;28;20396;-68
2022/07/23 01:03:11;;;;;;;8.10;7.30;;;;;;;;;;5043118;28;20052;-68
2022/07/23 01:05:37;;;;;;;6.68;6.25;;;;;;;;;;5041150;28;20555;-68
2022/07/23 01:08:04;;;;;;;7.53;6.93;;;;;;;;;;5042500;28;20103;-68
2022/07/23 01:10:33;;;;;;;7.63;6.90;;;;;;;;;;5046650;28;20020;-68
2022/07/23 01:13:07;;;;;;;7.93;7.38;;;;;;;;;;5043279;28;20033;-69
2022/07/23 01:15:35;;;;;;;7.35;6.85;;;;;;;;;;5045818;28;20064;-68
2022/07/23 01:18:01;;;;;;;7.97;7.38;;;;;;;;;;5035089;28;20465;-69
2022/07/23 01:20:28;;;;;;;8.23;7.50;;;;;;;;;;5043585;28;20036;-68
2022/07/23 01:22:55;;;;;;;8.13;7.43;;;;;;;;;;5040871;28;20029;-68
2022/07/23 01:25:21;;;;;;;7.90;7.15;;;;;;;;;;5060511;28;20033;-68
2022/07/23 01:27:54;;;;;;;7.75;7.13;;;;;;;;;;5042960;28;20711;-68
2022/07/23 01:30:20;;;;;;;7.68;6.97;;;;;;;;;;5044111;28;20033;-68
2022/07/23 01:32:47;;;;;;;8.70;8.00;;;;;;;;;;5038811;28;20040;-68
2022/07/23 01:35:12;;;;;;;8.20;7.60;;;;;;;;;;5042483;28;20040;-68
2022/07/23 01:37:40;;;;;;;8.07;7.35;;;;;;;;;;5043266;28;20059;-68
2022/07/23 01:40:07;;;;;;;8.40;7.60;;;;;;;;;;5041358;28;20045;-68
2022/07/23 01:42:32;;;;;;;8.30;7.70;;;;;;;;;;5041175;28;20064;-69
2022/07/23 01:44:58;;;;;;;8.15;7.55;;;;;;;;;;5040311;28;20661;-68
2022/07/23 01:47:24;;;;;;;8.10;7.50;;;;;;;;;;5044360;28;20025;-68
2022/07/23 01:49:52;;;;;;;8.80;8.10;;;;;;;;;;5041090;28;20570;-68
2022/07/23 01:52:38;;;;;;;9.05;8.18;;;;;;;;;;5037597;28;20463;-68
2022/07/23 01:55:05;;;;;;;8.43;7.72;;;;;;;;;;5032324;28;20047;-68
2022/07/23 01:57:32;;;;;;;8.65;7.70;;;;;;;;;;5062986;28;20029;-68
2022/07/23 01:59:58;;;;;;;8.65;7.95;;;;;;;;;;5044944;28;20549;-69
2022/07/23 02:02:24;;;;;;;8.30;7.68;;;;;;;;;;5045059;28;20033;-68
2022/07/23 02:04:50;;;;;;;8.65;7.90;;;;;;;;;;5043509;28;20021;-69
2022/07/23 02:07:18;;;;;;;8.30;7.70;;;;;;;;;;5043948;28;20061;-68
2022/07/23 02:09:43;;;;;;;8.70;8.00;;;;;;;;;;5039573;28;20456;-68
2022/07/23 02:12:12;;;;;;;9.15;8.30;;;;;;;;;;5040943;28;20064;-68
2022/07/23 02:14:37;;;;;;;8.30;7.70;;;;;;;;;;5039495;28;20084;-69
2022/07/23 02:17:03;;;;;;;8.60;7.90;;;;;;;;;;5041749;28;20486;-68
2022/07/23 02:19:29;;;;;;;8.35;7.72;;;;;;;;;;5042921;28;20028;-68
2022/07/23 02:21:54;;;;;;;8.50;7.82;;;;;;;;;;5039686;28;20030;-68
2022/07/23 02:24:21;;;;;;;8.30;7.70;;;;;;;;;;5038903;28;20037;-68
2022/07/23 02:26:46;;;;;;;8.57;7.80;;;;;;;;;;5039672;28;20032;-68
2022/07/23 02:29:12;;;;;;;8.20;7.55;;;;;;;;;;5041660;28;20037;-69
2022/07/23 02:31:38;;;;;;;9.25;7.25;;;;;;;;;;5039377;28;20030;-69
2022/07/23 02:34:05;;;;;;;8.07;7.47;;;;;;;;;;5040944;28;20033;-69
2022/07/23 02:36:31;;;;;;;7.78;7.18;;;;;;;;;;5040488;28;20060;-69
2022/07/23 02:38:58;;;;;;;8.60;7.90;;;;;;;;;;5033024;28;20048;-69
2022/07/23 02:41:23;;;;;;;8.35;7.55;;;;;;;;;;5033269;28;20045;-69
2022/07/23 02:43:49;;;;;;;8.10;7.40;;;;;;;;;;5042887;28;20029;-69
2022/07/23 02:46:15;;;;;;;9.02;8.18;;;;;;;;;;5043422;28;20041;-69
2022/07/23 02:48:41;;;;;;;8.45;7.85;;;;;;;;;;5043041;28;20051;-69
2022/07/23 02:51:07;;;;;;;8.13;7.53;;;;;;;;;;5041187;28;20476;-69
2022/07/23 02:53:38;;;;;;;8.55;7.95;;;;;;;;;;5037950;28;20041;-68
2022/07/23 02:56:04;;;;;;;9.07;8.35;;;;;;;;;;5036706;28;20036;-68
2022/07/23 02:58:29;;;;;;;8.77;8.07;;;;;;;;;;5036023;28;20037;-68
2022/07/23 03:00:55;;;;;;;9.50;8.80;;;;;;;;;;5043537;28;20044;-68
2022/07/23 03:03:20;;;;;;;9.27;8.43;;;;;;;;;;5042754;28;20039;-68
2022/07/23 03:05:47;;;;;;;8.60;7.78;;;;;;;;;;5041926;28;20527;-68
2022/07/23 03:08:12;;;;;;;9.05;8.25;;;;;;;;;;5037980;28;20040;-68
2022/07/23 03:10:41;;;;;;;9.15;8.35;;;;;;;;;;5039073;28;20643;-68
2022/07/23 03:13:07;;;;;;;9.15;8.30;;;;;;;;;;5038674;28;20103;-69
2022/07/23 03:15:33;;;;;;;8.63;7.82;;;;;;;;;;5042621;28;20698;-68
2022/07/23 03:17:59;;;;;;;8.57;7.85;;;;;;;;;;5038532;28;20115;-68
2022/07/23 03:20:25;;;;;;;8.07;7.57;;;;;;;;;;5045565;28;20124;-68
2022/07/23 03:22:52;;;;;;;8.75;8.05;;;;;;;;;;5041087;28;20025;-68
2022/07/23 03:25:18;;;;;;;7.93;7.40;;;;;;;;;;5038433;28;20114;-68
2022/07/23 03:27:45;;;;;;;8.40;7.63;;;;;;;;;;5039075;28;20033;-67
2022/07/23 03:30:11;;;;;;;8.80;8.10;;;;;;;;;;5042609;28;20025;-66
2022/07/23 03:32:37;;;;;;;9.18;8.30;;;;;;;;;;5035540;28;20488;-66
2022/07/23 03:35:03;;;;;;;9.93;8.52;;;;;;;;;;5039336;28;20026;-66
2022/07/23 03:37:30;;;;;;;8.32;7.53;;;;;;;;;;5042044;28;20038;-66
2022/07/23 03:39:57;;;;;;;9.35;8.65;;;;;;;;;;5034149;28;20457;-66
2022/07/23 03:42:24;;;;;;;9.55;8.75;;;;;;;;;;5038451;28;20043;-66
2022/07/23 03:44:49;;;;;;;8.50;7.90;;;;;;;;;;5036869;28;20033;-66
2022/07/23 03:47:17;;;;;;;9.38;8.55;;;;;;;;;;5042480;28;20172;-66
2022/07/23 03:49:43;;;;;;;9.10;8.30;;;;;;;;;;5034922;28;20033;-66
2022/07/23 03:52:09;;;;;;;9.15;8.45;;;;;;;;;;5040550;28;20589;-66
2022/07/23 03:54:34;;;;;;;9.25;8.27;;;;;;;;;;5039423;28;20029;-66
2022/07/23 03:57:01;;;;;;;9.23;8.52;;;;;;;;;;5039607;28;20098;-66
2022/07/23 03:59:28;;;;;;;8.68;7.97;;;;;;;;;;5033096;28;20033;-66
2022/07/23 04:01:53;;;;;;;8.63;7.88;;;;;;;;;;5042860;28;20494;-66
2022/07/23 04:04:19;;;;;;;8.82;8.10;;;;;;;;;;5038093;28;20052;-66
2022/07/23 04:06:45;;;;;;;8.80;8.10;;;;;;;;;;5045893;28;20033;-66
2022/07/23 04:09:10;;;;;;;9.27;8.57;;;;;;;;;;5038423;28;20066;-66
2022/07/23 04:11:36;;;;;;;9.55;8.48;;;;;;;;;;5046649;28;20116;-66
2022/07/23 04:14:02;;;;;;;9.63;8.82;;;;;;;;;;5041914;28;20064;-66
2022/07/23 04:16:30;;;;;;;9.77;8.88;;;;;;;;;;5044242;28;20118;-66
2022/07/23 04:18:57;;;;;;;9.77;8.98;;;;;;;;;;5041591;28;20090;-66
2022/07/23 04:21:24;;;;;;;8.48;7.85;;;;;;;;;;5043342;28;20043;-66
2022/07/23 04:23:49;;;;;;;9.70;8.45;;;;;;;;;;5045743;28;20431;-66
2022/07/23 04:26:15;;;;;;;9.25;8.45;;;;;;;;;;5041794;28;20094;-66
2022/07/23 04:28:41;;;;;;;9.60;8.50;;;;;;;;;;5034040;28;20108;-66
2022/07/23 04:31:07;;;;;;;10.00;9.00;;;;;;;;;;5041559;28;20033;-66
2022/07/23 04:33:34;;;;;;;9.68;8.88;;;;;;;;;;5038150;28;20032;-66
2022/07/23 04:36:04;;;;;;;9.55;8.82;;;;;;;;;;5041001;28;20033;-66
2022/07/23 04:38:30;;;;;;;9.98;9.07;;;;;;;;;;5045182;28;20037;-66
2022/07/23 04:41:00;;;;;;;10.00;9.10;;;;;;;;;;5043404;28;20033;-66
2022/07/23 04:43:25;;;;;;;10.02;9.13;;;;;;;;;;5043315;28;20033;-66
2022/07/23 04:45:53;;;;;;;9.40;8.60;;;;;;;;;;5040071;28;20558;-66
2022/07/23 04:48:19;;;;;;;9.85;9.05;;;;;;;;;;5040069;28;20028;-66
2022/07/23 04:50:54;;;;;;;9.77;9.07;;;;;;;;;;5044826;28;20399;-65
2022/07/23 04:53:22;;;;;;;9.95;8.90;;;;;;;;;;5026388;28;20071;-66
2022/07/23 04:55:50;;;;;;;10.07;9.10;;;;;;;;;;5041822;28;20033;-66
2022/07/23 04:58:16;;;;;;;10.00;9.20;;;;;;;;;;5035146;28;20051;-66
2022/07/23 05:00:42;;;;;;;9.68;8.88;;;;;;;;;;5036266;28;20061;-66
2022/07/23 05:03:08;;;;;;;9.95;8.98;;;;;;;;;;5039643;28;20034;-66
2022/07/23 05:05:33;;;;;;;10.10;9.20;;;;;;;;;;5039399;28;20036;-66
2022/07/23 05:08:07;;;;;;;10.10;9.10;;;;;;;;;;5042620;28;20041;-66
2022/07/23 05:10:33;;;;;;;9.60;8.80;;;;;;;;;;5043857;28;20387;-66
2022/07/23 05:12:59;;;;;;;10.02;9.18;;;;;;;;;;5040471;28;20037;-66
2022/07/23 05:15:24;;;;;;;10.20;9.25;;;;;;;;;;5042830;28;20037;-66
2022/07/23 05:17:50;;;;;;;10.32;9.32;;;;;;;;;;5038919;28;20424;-66
2022/07/23 05:20:17;;;;;;;9.40;8.70;;;;;;;;;;5045044;28;20040;-66
2022/07/23 05:22:43;;;;;;;9.02;8.27;;;;;;;;;;5044929;28;20021;-66
2022/07/23 05:25:09;;;;;;;9.65;8.85;;;;;;;;;;5043754;28;20674;-66
2022/07/23 05:27:35;;;;;;;10.05;9.15;;;;;;;;;;5043374;28;20024;-67
2022/07/23 05:30:00;;;;;;;9.80;8.93;;;;;;;;;;5044879;28;20044;-67
2022/07/23 05:32:26;;;;;;;9.90;9.02;;;;;;;;;;5029091;28;20396;-66
2022/07/23 05:35:04;;;;;;;9.48;8.48;;;;;;;;;;5024312;28;20481;-66
2022/07/23 05:37:30;;;;;;;10.13;9.25;;;;;;;;;;5047220;28;20072;-66
2022/07/23 05:40:00;;;;;;;9.45;8.75;;;;;;;;;;5042829;28;20056;-67
2022/07/23 05:42:26;;;;;;;10.13;9.02;;;;;;;;;;5045005;28;20052;-67
2022/07/23 05:44:52;;;;;;;9.82;8.90;;;;;;;;;;5039188;28;20034;-66
2022/07/23 05:47:17;;;;;;;9.63;8.82;;;;;;;;;;5043948;28;20040;-66
2022/07/23 05:49:43;;;;;;;10.23;9.20;;;;;;;;;;5037979;28;20037;-66
2022/07/23 05:52:23;;;;;;;9.63;8.77;;;;;;;;;;5045624;28;20043;-67
2022/07/23 05:55:12;;;;;;;10.00;8.93;;;;;;;;;;5038038;28;20048;-66
2022/07/23 05:57:40;;;;;;;9.90;9.10;;;;;;;;;;5038337;28;20039;-66
2022/07/23 06:00:07;;;;;;;10.02;9.20;;;;;;;;;;5038422;28;20029;-66
2022/07/23 06:02:39;;;;;;;9.43;8.63;;;;;;;;;;5038334;28;20489;-66
2022/07/23 06:05:07;;;;;;;10.35;9.35;;;;;;;;;;5037341;28;20043;-66
2022/07/23 06:07:34;;;;;;;10.10;9.10;;;;;;;;;;5040427;28;20035;-65
2022/07/23 06:09:59;;;;;;;10.20;9.23;;;;;;;;;;5041085;28;20035;-67
2022/07/23 06:12:25;;;;;;;10.32;9.32;;;;;;;;;;5039548;28;20024;-67
2022/07/23 06:14:52;;;;;;;9.88;9.07;;;;;;;;;;5042720;28;20090;-66
2022/07/23 06:17:18;;;;;;;11.13;9.40;;;;;;;;;;5039277;28;20056;-66
2022/07/23 06:19:44;;;;;;;9.55;8.75;;;;;;;;;;5040190;28;20037;-67
2022/07/23 06:22:09;;;;;;;9.65;8.82;;;;;;;;;;5038992;28;20033;-67
2022/07/23 06:24:35;;;;;;;10.45;9.10;;;;;;;;;;5044362;28;20033;-67
2022/07/23 06:27:02;;;;;;;9.60;8.30;;;;;;;;;;5041857;28;20491;-66
2022/07/23 06:29:29;;;;;;;9.93;9.18;;;;;;;;;;5045014;28;20047;-66
2022/07/23 06:31:55;;;;;;;10.15;8.95;;;;;;;;;;5041153;28;20029;-66
2022/07/23 06:34:21;;;;;;;11.52;9.48;;;;;;;;;;5041826;28;20045;-66
2022/07/23 06:36:46;;;;;;;9.40;8.70;;;;;;;;;;5037383;28;20044;-66
2022/07/23 06:39:12;;;;;;;9.85;8.85;;;;;;;;;;5039233;28;20029;-66
2022/07/23 06:41:38;;;;;;;11.77;8.98;;;;;;;;;;5039986;28;20037;-66
2022/07/23 06:44:04;;;;;;;9.65;8.85;;;;;;;;;;5037251;28;20029;-65
2022/07/23 06:46:32;;;;;;;9.57;8.68;;;;;;;;;;5036744;28;20068;-66
2022/07/23 06:48:57;;;;;;;10.07;8.80;;;;;;;;;;5035660;28;20037;-66
2022/07/23 06:51:23;;;;;;;9.10;8.30;;;;;;;;;;5018055;28;20395;-66
2022/07/23 06:53:48;;;;;;;9.63;8.75;;;;;;;;;;5034412;28;20053;-66
2022/07/23 06:56:14;;;;;;;9.38;8.68;;;;;;;;;;5044340;28;20040;-66
2022/07/23 06:58:39;;;;;;;8.90;8.10;;;;;;;;;;5037333;28;20042;-66
2022/07/23 07:01:05;;;;;;;9.18;8.48;;;;;;;;;;5043394;28;20033;-66
2022/07/23 07:03:31;;;;;;;9.23;8.38;;;;;;;;;;5039752;28;20266;-66
2022/07/23 07:05:57;;;;;;;9.18;8.23;;;;;;;;;;5039965;28;20624;-66
2022/07/23 07:08:23;;;;;;;9.63;8.73;;;;;;;;;;5042046;28;20537;-66
2022/07/23 07:10:49;;;;;;;9.43;8.65;;;;;;;;;;5043966;28;20076;-66
2022/07/23 07:13:14;;;;;;;10.23;8.90;;;;;;;;;;5035828;28;20120;-66
2022/07/23 07:15:40;;;;;;;9.77;8.88;;;;;;;;;;5041171;28;20025;-65
2022/07/23 07:18:06;;;;;;;9.52;8.45;;;;;;;;;;5029246;28;20038;-66
2022/07/23 07:20:32;;;;;;;9.75;8.70;;;;;;;;;;5045805;28;20068;-66
2022/07/23 07:22:58;;;;;;;9.90;9.00;;;;;;;;;;5037324;28;20043;-66
2022/07/23 07:25:23;;;;;;;9.18;8.45;;;;;;;;;;5038963;28;20068;-66
2022/07/23 07:27:49;;;;;;;8.73;7.93;;;;;;;;;;5037767;28;20048;-66
2022/07/23 07:30:15;;;;;;;8.55;7.75;;;;;;;;;;5036835;28;20795;-66
2022/07/23 07:32:40;;;;;;;8.85;8.05;;;;;;;;;;5039500;28;20041;-66
2022/07/23 07:35:07;;;;;;;9.18;8.27;;;;;;;;;;5044097;28;20045;-66
2022/07/23 07:37:32;;;;;;;9.40;8.57;;;;;;;;;;5045822;28;20041;-66
2022/07/23 07:39:58;;;;;;;10.95;8.73;;;;;;;;;;5040372;28;20044;-66
2022/07/23 07:42:23;;;;;;;10.60;9.50;;;;;;;;;;5043093;28;20119;-66
2022/07/23 07:44:49;;;;;;;9.75;8.68;;;;;;;;;;5037062;28;20033;-66
2022/07/23 07:47:15;;;;;;;9.18;8.27;;;;;;;;;;5045889;28;20075;-66
2022/07/23 07:49:42;;;;;;;9.27;8.48;;;;;;;;;;5044789;28;20025;-66
2022/07/23 07:52:07;;;;;;;9.85;8.85;;;;;;;;;;5049115;28;20029;-66
2022/07/23 07:54:33;;;;;;;8.63;7.93;;;;;;;;;;5047597;28;20396;-66
2022/07/23 07:56:59;;;;;;;8.90;8.20;;;;;;;;;;5046967;28;20036;-66
2022/07/23 07:59:25;;;;;;;8.93;8.23;;;;;;;;;;5044932;28;20512;-66
2022/07/23 08:01:51;;;;;;;9.32;7.93;;;;;;;;;;5047604;28;20035;-68
2022/07/23 08:04:17;;;;;;;8.30;7.60;;;;;;;;;;5048011;28;20102;-67
2022/07/23 08:06:42;;;;;;;9.10;7.28;;;;;;;;;;5035881;28;20041;-68
2022/07/23 08:09:08;;;;;;;8.18;7.47;;;;;;;;;;5036977;28;20029;-68
2022/07/23 08:11:34;;;;;;;8.82;7.93;;;;;;;;;;5037113;28;20156;-68
2022/07/23 08:13:59;;;;;;;8.75;8.00;;;;;;;;;;5045090;28;20033;-68
2022/07/23 08:16:25;;;;;;;9.23;8.43;;;;;;;;;;5047602;28;20032;-68
2022/07/23 08:18:51;;;;;;;9.90;9.10;;;;;;;;;;5047278;28;20036;-68
2022/07/23 08:21:16;;;;;;;9.75;8.30;;;;;;;;;;5048966;28;20044;-69
2022/07/23 08:23:42;;;;;;;12.13;8.63;;;;;;;;;;5030389;28;20028;-69
2022/07/23 08:26:08;;;;;;;9.10;8.30;;;;;;;;;;5045580;28;20028;-69
2022/07/23 08:28:34;;;;;;;9.18;8.27;;;;;;;;;;5044224;28;20040;-69
2022/07/23 08:31:00;;;;;;;9.18;8.38;;;;;;;;;;5049294;28;20029;-69
2022/07/23 08:33:26;;;;;;;9.07;8.18;;;;;;;;;;5042038;28;20480;-68
2022/07/23 08:35:55;;;;;;;9.10;8.32;;;;;;;;;;5042308;28;20031;-69
2022/07/23 08:38:22;;;;;;;9.80;8.90;;;;;;;;;;5047065;28;20037;-68
2022/07/23 08:40:50;;;;;;;9.20;8.45;;;;;;;;;;5042308;28;20032;-69
2022/07/23 08:43:22;;;;;;;9.60;8.50;;;;;;;;;;5044114;28;20059;-69
2022/07/23 08:45:52;;;;;;;9.60;8.80;;;;;;;;;;5040916;28;20048;-68
2022/07/23 08:48:20;;;;;;;9.02;8.23;;;;;;;;;;5042917;28;20537;-69
2022/07/23 08:50:54;;;;;;;9.40;8.50;;;;;;;;;;5045596;28;20053;-69
2022/07/23 08:53:21;;;;;;;10.00;9.10;;;;;;;;;;5044285;28;20398;-69
2022/07/23 08:55:49;;;;;;;9.20;8.20;;;;;;;;;;5047214;28;20488;-69
2022/07/23 08:58:15;;;;;;;9.05;8.23;;;;;;;;;;5040118;28;20568;-69
2022/07/23 09:00:41;;;;;;;9.68;8.02;;;;;;;;;;5043270;28;20029;-68
2022/07/23 09:03:07;;;;;;;8.73;7.93;;;;;;;;;;5040128;28;20091;-69
2022/07/23 09:05:32;;;;;;;10.30;8.40;;;;;;;;;;5041572;28;20045;-69
2022/07/23 09:08:19;;;;;;;10.30;8.13;;;;;;;;;;5041166;28;20039;-69
2022/07/23 09:10:58;;;;;;;9.32;8.43;;;;;;;;;;5041055;28;20119;-68
2022/07/23 09:13:25;;;;;;;8.57;7.82;;;;;;;;;;5042432;28;20033;-69
2022/07/23 09:15:53;;;;;;;9.27;8.35;;;;;;;;;;5045432;28;20067;-68
2022/07/23 09:18:18;;;;;;;9.35;8.45;;;;;;;;;;5042196;28;20481;-69
2022/07/23 09:20:44;;;;;;;9.02;8.23;;;;;;;;;;5046329;28;20052;-69
2022/07/23 09:23:10;;;;;;;10.57;8.48;;;;;;;;;;5042949;28;20037;-69
2022/07/23 09:25:36;;;;;;;10.35;7.93;;;;;;;;;;5042596;28;20082;-69
2022/07/23 09:28:02;;;;;;;8.95;8.13;;;;;;;;;;5041666;28;20043;-69
2022/07/23 09:30:30;;;;;;;8.43;7.72;;;;;;;;;;5041964;28;20507;-69
2022/07/23 09:33:13;;;;;;;9.13;8.25;;;;;;;;;;5039569;28;20041;-69
2022/07/23 09:35:46;;;;;;;8.40;7.40;;;;;;;;;;5040692;28;20044;-69
2022/07/23 09:38:13;;;;;;;8.20;7.50;;;;;;;;;;5046809;28;20024;-69
2022/07/23 09:40:38;;;;;;;8.30;7.47;;;;;;;;;;5039191;28;20041;-69
2022/07/23 09:43:04;;;;;;;8.52;7.72;;;;;;;;;;5038300;28;20038;-69
2022/07/23 09:45:29;;;;;;;8.02;7.30;;;;;;;;;;5038799;28;20041;-69
2022/07/23 09:48:15;;;;;;;8.32;7.53;;;;;;;;;;5042048;28;20404;-69
2022/07/23 09:50:42;;;;;;;8.18;7.38;;;;;;;;;;5020181;28;20045;-69
2022/07/23 09:53:08;;;;;;;8.05;7.25;;;;;;;;;;5045761;28;20112;-69
2022/07/23 09:55:36;;;;;;;9.07;7.57;;;;;;;;;;5040880;28;20131;-69
2022/07/23 09:58:03;;;;;;;8.15;7.45;;;;;;;;;;5040550;28;20432;-68
2022/07/23 10:00:30;;;;;;;8.32;7.63;;;;;;;;;;5045329;28;20066;-69
2022/07/23 10:02:57;;;;;;;8.70;7.88;;;;;;;;;;5042240;28;20022;-69
2022/07/23 10:05:30;;;;;;;7.97;7.38;;;;;;;;;;5042528;28;20112;-69
2022/07/23 10:08:19;;;;;;;7.97;7.28;;;;;;;;;;5040866;28;20075;-69
2022/07/23 10:11:14;;;;;;;8.27;7.57;;;;;;;;;;5029357;28;20036;-69
2022/07/23 10:14:02;;;;;;;8.20;7.40;;;;;;;;;;5041262;28;20033;-68
2022/07/23 10:16:49;;;;;;;7.97;7.35;;;;;;;;;;5036602;28;20048;-68
2022/07/23 10:19:15;;;;;;;7.97;7.28;;;;;;;;;;5044034;28;20484;-69
2022/07/23 10:21:46;;;;;;;8.25;7.47;;;;;;;;;;5040752;28;20187;-69
2022/07/23 10:24:29;;;;;;;8.45;7.68;;;;;;;;;;5044933;28;20029;-69
2022/07/23 10:27:22;;;;;;;7.85;7.25;;;;;;;;;;5036776;28;20038;-69
2022/07/23 10:30:00;;;;;;;8.18;7.47;;;;;;;;;;5037942;28;20036;-69
2022/07/23 10:32:56;;;;;;;9.00;8.30;;;;;;;;;;5038268;28;20530;-69
2022/07/23 10:35:42;;;;;;;8.15;7.40;;;;;;;;;;5036447;28;20043;-69
2022/07/23 10:38:26;;;;;;;8.88;8.15;;;;;;;;;;5042677;28;20041;-68
2022/07/23 10:41:01;;;;;;;7.55;6.95;;;;;;;;;;5041646;28;20037;-69
2022/07/23 10:44:13;;;;;;;8.00;7.40;;;;;;;;;;5033129;28;20476;-68
2022/07/23 10:49:35;;;;;;;8.93;7.35;;;;;;;;;;5040415;28;20033;-69
2022/07/23 10:52:24;;;;;;;8.75;7.65;;;;;;;;;;5040582;28;20060;-68
2022/07/23 10:55:09;;;;;;;8.93;8.13;;;;;;;;;;5041311;28;20037;-68
2022/07/23 10:57:50;;;;;;;8.88;8.18;;;;;;;;;;5041722;28;20032;-69
2022/07/23 11:00:26;;;;;;;9.52;8.15;;;;;;;;;;5043313;28;20037;-68
2022/07/23 11:02:54;;;;;;;8.20;7.50;;;;;;;;;;5040369;28;20033;-69
2022/07/23 11:05:25;;;;;;;8.25;7.45;;;;;;;;;;5041903;28;20883;-69
2022/07/23 11:08:11;;;;;;;7.90;7.20;;;;;;;;;;5038480;28;20040;-69
2022/07/23 11:11:06;;;;;;;8.20;7.50;;;;;;;;;;5047398;28;20166;-68
2022/07/23 11:13:37;;;;;;;8.00;7.35;;;;;;;;;;5043176;28;20106;-68
2022/07/23 11:16:15;;;;;;;7.82;7.07;;;;;;;;;;5042110;28;20298;-69
2022/07/23 11:18:44;;;;;;;8.20;7.50;;;;;;;;;;5046178;28;20136;-68
2022/07/23 11:21:22;;;;;;;;;;;;;;;;;;5043640;28;20072;-69
2022/07/23 11:24:16;;;;;;;9.43;7.75;;;;;;;;;;5042665;28;20007;-69
2022/07/23 11:26:45;;;;;;;8.57;7.80;;;;;;;;;;5037715;28;20045;-68
2022/07/23 11:29:28;;;;;;;8.25;7.55;;;;;;;;;;5045652;28;20041;-69
2022/07/23 11:31:54;;;;;;;7.80;7.18;;;;;;;;;;5042177;28;20402;-69
2022/07/23 11:34:50;;;;;;;7.28;6.60;;;;;;;;;;5043719;28;20457;-68
2022/07/23 11:37:33;;;;;;;8.15;7.47;;;;;;;;;;5036790;28;20095;-68
2022/07/23 11:39:59;;;;;;;7.55;6.85;;;;;;;;;;5043295;28;20420;-68
2022/07/23 11:42:25;;;;;;;7.85;7.13;;;;;;;;;;5046977;28;20102;-68
2022/07/23 11:44:51;;;;;;;8.13;7.47;;;;;;;;;;5038941;28;20484;-68
2022/07/23 11:47:25;;;;;;;8.45;7.65;;;;;;;;;;5045484;28;20029;-68
2022/07/23 11:50:02;;;;;;;8.43;7.75;;;;;;;;;;5045796;28;20115;-68
2022/07/23 11:52:29;;;;;;;9.27;8.48;;;;;;;;;;5047768;28;20329;-68
2022/07/23 11:54:58;;;;;;;7.93;7.32;;;;;;;;;;5047170;28;20040;-68
2022/07/23 11:57:27;;;;;;;9.15;8.25;;;;;;;;;;5042230;28;20037;-68
2022/07/23 11:59:54;;;;;;;;;;;;;;;;;;5040066;28;20345;-69
2022/07/23 12:02:21;;;;;;;8.45;7.72;;;;;;;;;;5043969;28;20377;-70
2022/07/23 12:04:49;;;;;;;8.52;7.88;;;;;;;;;;5041130;28;20056;-68
2022/07/23 12:07:27;;;;;;;8.07;7.20;;;;;;;;;;5042033;28;21280;-68
2022/07/23 12:09:54;;;;;;;8.13;7.40;;;;;;;;;;5045367;28;20094;-68
2022/07/23 12:12:21;;;;;;;8.18;7.47;;;;;;;;;;5043675;28;20488;-68
2022/07/23 12:14:58;;;;;;;7.43;6.82;;;;;;;;;;5044086;28;20025;-68
2022/07/23 12:17:30;;;;;;;8.77;7.97;;;;;;;;;;5042326;28;20033;-68
2022/07/23 12:19:57;;;;;;;8.32;7.60;;;;;;;;;;5042865;28;20029;-67
2022/07/23 12:22:24;;;;;;;7.95;7.25;;;;;;;;;;5044170;28;20377;-68
2022/07/23 12:25:04;;;;;;;8.80;8.00;;;;;;;;;;5044132;28;20032;-67
2022/07/23 12:27:30;;;;;;;7.90;7.25;;;;;;;;;;5043117;28;20135;-68
2022/07/23 12:29:56;;;;;;;8.35;7.55;;;;;;;;;;5041322;28;20059;-68
2022/07/23 12:32:26;;;;;;;8.48;7.88;;;;;;;;;;5044648;28;20112;-68
2022/07/23 12:35:07;;;;;;;7.82;7.22;;;;;;;;;;5041227;28;20055;-67
2022/07/23 12:37:35;;;;;;;7.80;7.10;;;;;;;;;;5045801;28;20040;-68
2022/07/23 12:40:21;;;;;;;8.93;8.13;;;;;;;;;;5040586;28;20040;-68
2022/07/23 12:42:48;;;;;;;8.15;7.55;;;;;;;;;;5039491;28;20485;-68
2022/07/23 12:45:14;;;;;;;7.47;6.93;;;;;;;;;;5039208;28;20455;-68
2022/07/23 12:48:05;;;;;;;8.15;7.35;;;;;;;;;;5043404;28;20197;-68
2022/07/23 12:50:31;;;;;;;8.18;7.47;;;;;;;;;;5041036;28;20059;-69
2022/07/23 12:53:19;;;;;;;8.20;7.60;;;;;;;;;;5041305;28;20033;-69
2022/07/23 12:55:47;;;;;;;8.73;8.02;;;;;;;;;;5040628;28;20033;-69
2022/07/23 12:58:19;;;;;;;9.70;8.90;;;;;;;;;;5039120;28;20519;-68
2022/07/23 13:00:50;;;;;;;9.55;8.60;;;;;;;;;;5041274;28;20047;-68
2022/07/23 13:03:40;;;;;;;9.15;8.43;;;;;;;;;;5038194;28;20116;-68
2022/07/23 13:06:10;;;;;;;9.88;8.48;;;;;;;;;;5040554;28;20116;-68
2022/07/23 13:08:39;;;;;;;9.30;8.60;;;;;;;;;;5039625;28;20655;-68
2022/07/23 13:11:05;;;;;;;;;;;;;;;;;;5043478;28;20025;-68
2022/07/23 13:13:34;;;;;;;8.98;7.75;;;;;;;;;;5043770;28;19921;-68
2022/07/23 13:16:00;;;;;;;8.80;8.00;;;;;;;;;;5040249;28;20029;-68
2022/07/23 13:18:27;;;;;;;8.35;7.68;;;;;;;;;;5041406;28;20037;-66
2022/07/23 13:20:53;;;;;;;8.77;8.02;;;;;;;;;;5039506;28;20687;-68
2022/07/23 13:23:20;;;;;;;8.80;8.10;;;;;;;;;;5040896;28;20033;-69
2022/07/23 13:25:46;;;;;;;8.52;7.78;;;;;;;;;;5041613;28;20029;-68
2022/07/23 13:28:12;;;;;;;8.63;7.82;;;;;;;;;;5043423;28;20134;-68
2022/07/23 13:30:39;;;;;;;9.82;8.95;;;;;;;;;;5037979;28;20033;-68
2022/07/23 13:33:05;;;;;;;9.40;8.65;;;;;;;;;;5040554;28;21209;-69
2022/07/23 13:35:34;;;;;;;8.77;8.02;;;;;;;;;;5040133;28;20264;-69
2022/07/23 13:37:59;;;;;;;8.88;8.10;;;;;;;;;;5039132;28;20049;-68
2022/07/23 13:40:25;;;;;;;8.30;7.70;;;;;;;;;;5036533;28;20761;-68
2022/07/23 13:42:51;;;;;;;9.15;8.35;;;;;;;;;;5041609;28;20040;-67
2022/07/23 13:45:16;;;;;;;10.00;8.90;;;;;;;;;;5040564;28;20650;-68
2022/07/23 13:47:42;;;;;;;9.38;8.55;;;;;;;;;;5043371;28;20040;-68
2022/07/23 13:50:15;;;;;;;9.40;8.60;;;;;;;;;;5056979;28;20120;-68
2022/07/23 13:52:42;;;;;;;9.27;8.57;;;;;;;;;;5044022;28;20037;-68
2022/07/23 13:55:08;;;;;;;8.85;8.05;;;;;;;;;;5040733;28;20029;-68
2022/07/23 13:57:34;;;;;;;8.88;8.18;;;;;;;;;;5035776;28;20041;-68
2022/07/23 14:00:00;;;;;;;9.20;8.32;;;;;;;;;;5040811;28;20021;-68
2022/07/23 14:02:26;;;;;;;9.20;8.40;;;;;;;;;;5037972;28;20123;-68
2022/07/23 14:04:52;;;;;;;9.32;8.63;;;;;;;;;;5039009;28;20110;-68
2022/07/23 14:07:18;;;;;;;9.25;8.45;;;;;;;;;;5038174;28;20251;-68
2022/07/23 14:09:44;;;;;;;8.93;8.02;;;;;;;;;;5037920;28;20039;-68
2022/07/23 14:12:12;;;;;;;9.13;8.38;;;;;;;;;;5034776;28;20034;-68
2022/07/23 14:14:38;;;;;;;8.75;7.85;;;;;;;;;;5040681;28;20048;-68
2022/07/23 14:17:05;;;;;;;8.75;7.97;;;;;;;;;;5038312;28;20044;-68
2022/07/23 14:19:31;;;;;;;8.82;8.05;;;;;;;;;;5044516;28;20052;-66
2022/07/23 14:21:56;;;;;;;9.23;8.52;;;;;;;;;;5034882;28;20033;-68
2022/07/23 14:24:22;;;;;;;9.60;8.65;;;;;;;;;;5037763;28;20041;-70
2022/07/23 14:26:48;;;;;;;8.93;8.23;;;;;;;;;;5041568;28;20452;-68
2022/07/23 14:29:13;;;;;;;9.60;8.40;;;;;;;;;;5040388;28;20392;-68
2022/07/23 14:31:39;;;;;;;9.55;8.75;;;;;;;;;;5035750;28;20079;-68
2022/07/23 14:34:05;;;;;;;9.45;8.55;;;;;;;;;;5040488;28;20045;-68
2022/07/23 14:36:30;;;;;;;9.75;8.75;;;;;;;;;;5038944;28;20283;-67
2022/07/23 14:38:56;;;;;;;9.10;8.30;;;;;;;;;;5042070;28;20037;-68
2022/07/23 14:41:21;;;;;;;9.80;8.90;;;;;;;;;;5038391;28;20285;-68
2022/07/23 14:43:47;;;;;;;9.93;8.95;;;;;;;;;;5040377;28;20554;-67
2022/07/23 14:46:13;;;;;;;10.30;8.63;;;;;;;;;;5038094;28;20044;-68
2022/07/23 14:48:39;;;;;;;9.23;8.48;;;;;;;;;;5039111;28;20191;-67
2022/07/23 14:51:05;;;;;;;9.50;8.70;;;;;;;;;;5047664;28;20041;-68
2022/07/23 14:53:30;;;;;;;10.43;9.43;;;;;;;;;;5043583;28;20029;-67